createdAt,value
2023-01-11T00:01:12.906Z,15.63
2023-01-11T00:03:41.273Z,14.30
2023-01-11T00:06:10.722Z,22.03
2023-01-11T00:08:39.006Z,15.73
2023-01-11T00:11:13.236Z,9.77
2023-01-11T00:13:41.901Z,11.10
2023-01-11T00:16:10.334Z,15.57
2023-01-11T00:18:38.953Z,15.87
2023-01-11T00:21:07.671Z,9.47
2023-01-11T00:23:37.084Z,12.77
2023-01-11T00:26:06.028Z,12.90
2023-01-11T00:28:34.414Z,15.80
2023-01-11T00:31:02.868Z,11.10
2023-01-11T00:33:31.227Z,11.13
2023-01-11T00:35:59.681Z,14.37
2023-01-11T00:38:44.516Z,12.60
2023-01-11T00:41:35.322Z,15.83
2023-01-11T00:44:22.737Z,9.10
2023-01-11T00:47:09.898Z,9.97
2023-01-11T00:49:38.236Z,9.60
2023-01-11T00:52:09.415Z,9.07
2023-01-11T00:54:41.182Z,6.67
2023-01-11T00:57:09.591Z,9.23
2023-01-11T00:59:39.715Z,19.10
2023-01-11T01:02:08.710Z,12.70
2023-01-11T01:04:37.092Z,11.53
2023-01-11T01:07:06.216Z,9.67
2023-01-11T01:09:34.671Z,12.23
2023-01-11T01:12:03.109Z,8.20
2023-01-11T01:14:33.668Z,7.30
2023-01-11T01:17:09.664Z,8.73
2023-01-11T01:19:38.714Z,5.70
2023-01-11T01:22:07.587Z,5.93
2023-01-11T01:24:36.941Z,3.23
2023-01-11T01:27:05.320Z,35.57
2023-01-11T01:29:33.721Z,8.97
2023-01-11T01:32:02.075Z,12.83
2023-01-11T01:34:30.344Z,27.13
2023-01-11T01:36:58.738Z,15.33
2023-01-11T01:39:27.204Z,24.07
2023-01-11T01:41:55.523Z,14.47
2023-01-11T01:44:51.771Z,14.80
2023-01-11T01:47:33.420Z,23.17
2023-01-11T01:50:05.103Z,22.00
2023-01-11T01:52:33.666Z,29.33
2023-01-11T01:55:05.203Z,35.27
2023-01-11T01:57:34.706Z,25.40
2023-01-11T02:00:07.019Z,22.63
2023-01-11T02:02:38.689Z,14.60
2023-01-11T02:05:07.405Z,8.43
2023-01-11T02:07:36.929Z,7.20
2023-01-11T02:10:16.696Z,7.27
2023-01-11T02:12:52.352Z,6.07
2023-01-11T02:15:21.416Z,5.30
2023-01-11T02:17:49.964Z,7.33
2023-01-11T02:20:30.405Z,4.23
2023-01-11T02:23:14.025Z,13.90
2023-01-11T02:26:13.554Z,12.17
2023-01-11T02:29:21.508Z,21.37
2023-01-11T02:32:18.207Z,22.53
2023-01-11T02:34:55.402Z,17.13
2023-01-11T02:38:12.741Z,16.27
2023-01-11T02:40:48.505Z,20.40
2023-01-11T02:43:46.536Z,6.53
2023-01-11T02:46:28.608Z,12.63
2023-01-11T02:49:19.960Z,18.83
2023-01-11T02:51:52.630Z,18.07
2023-01-11T02:54:21.987Z,6.07
2023-01-11T02:56:51.930Z,6.67
2023-01-11T02:59:23.224Z,11.33
2023-01-11T03:01:53.442Z,7.60
2023-01-11T03:04:28.493Z,8.33
2023-01-11T03:07:14.860Z,7.70
2023-01-11T03:10:01.793Z,3.20
2023-01-11T03:12:55.213Z,8.10
2023-01-11T03:15:41.893Z,7.47
2023-01-11T03:18:28.667Z,7.63
2023-01-11T03:21:11.986Z,14.80
2023-01-11T03:23:49.796Z,14.10
2023-01-11T03:26:48.395Z,10.83
2023-01-11T03:29:40.398Z,16.17
2023-01-11T03:32:29.385Z,13.20
2023-01-11T03:35:13.021Z,7.47
2023-01-11T03:37:48.748Z,17.67
2023-01-11T03:40:20.277Z,10.60
2023-01-11T03:43:08.643Z,9.10
2023-01-11T03:45:57.275Z,8.20
2023-01-11T03:48:41.718Z,10.33
2023-01-11T03:51:11.699Z,11.93
2023-01-11T03:53:40.181Z,9.03
2023-01-11T03:56:11.165Z,13.37
2023-01-11T03:58:40.122Z,34.93
2023-01-11T04:01:08.439Z,15.63
2023-01-11T04:03:36.817Z,9.10
2023-01-11T04:06:05.387Z,12.70
2023-01-11T04:08:33.735Z,11.50
2023-01-11T04:11:04.285Z,11.57
2023-01-11T04:13:34.291Z,12.33
2023-01-11T04:16:02.693Z,13.60
2023-01-11T04:18:31.224Z,15.53
2023-01-11T04:20:59.725Z,24.07
2023-01-11T04:23:28.106Z,19.47
2023-01-11T04:25:56.361Z,12.07
2023-01-11T04:28:24.615Z,14.13
2023-01-11T04:30:53.106Z,10.47
2023-01-11T04:33:23.067Z,12.80
2023-01-11T04:35:51.417Z,13.37
2023-01-11T04:38:20.337Z,9.10
2023-01-11T04:40:49.722Z,15.17
2023-01-11T04:43:19.299Z,13.93
2023-01-11T04:45:47.665Z,11.87
2023-01-11T04:48:16.032Z,9.63
2023-01-11T04:50:44.813Z,9.80
2023-01-11T04:53:13.758Z,12.43
2023-01-11T04:55:42.987Z,21.60
2023-01-11T04:58:11.231Z,16.57
2023-01-11T05:00:39.579Z,13.40
2023-01-11T05:03:08.000Z,10.67
2023-01-11T05:05:36.840Z,15.93
2023-01-11T05:08:05.730Z,12.97
2023-01-11T05:10:34.097Z,11.10
2023-01-11T05:13:03.150Z,14.50
2023-01-11T05:15:31.583Z,10.67
2023-01-11T05:18:00.007Z,10.63
2023-01-11T05:20:28.880Z,14.53
2023-01-11T05:22:57.871Z,12.73
2023-01-11T05:25:26.339Z,20.27
2023-01-11T05:27:54.628Z,18.53
2023-01-11T05:30:23.054Z,15.73
2023-01-11T05:32:52.308Z,17.43
2023-01-11T05:35:20.708Z,10.63
2023-01-11T05:37:49.628Z,19.03
2023-01-11T05:40:18.715Z,14.43
2023-01-11T05:42:47.782Z,11.67
2023-01-11T05:45:29.246Z,10.43
2023-01-11T05:47:57.979Z,19.50
2023-01-11T05:50:27.420Z,19.20
2023-01-11T05:52:56.335Z,21.00
2023-01-11T05:55:25.910Z,31.17
2023-01-11T05:57:54.811Z,26.67
2023-01-11T06:00:23.649Z,18.20
2023-01-11T06:02:52.426Z,17.17
2023-01-11T06:05:21.803Z,17.17
2023-01-11T06:07:50.768Z,18.27
2023-01-11T06:10:19.941Z,22.27
2023-01-11T06:13:12.957Z,23.80
2023-01-11T06:15:42.626Z,12.77
2023-01-11T06:18:11.223Z,7.37
2023-01-11T06:20:40.072Z,14.97
2023-01-11T06:23:08.787Z,11.43
2023-01-11T06:25:38.365Z,11.90
2023-01-11T06:28:07.247Z,12.23
2023-01-11T06:30:36.820Z,14.83
2023-01-11T06:33:08.829Z,24.10
2023-01-11T06:35:41.332Z,10.30
2023-01-11T06:38:13.729Z,15.10
2023-01-11T06:40:43.087Z,11.33
2023-01-11T06:43:12.242Z,12.67
2023-01-11T06:45:41.413Z,13.17
2023-01-11T06:48:10.720Z,13.80
2023-01-11T06:50:39.404Z,16.03
2023-01-11T06:53:07.955Z,15.13
2023-01-11T06:55:36.671Z,12.77
2023-01-11T06:58:05.881Z,10.50
2023-01-11T07:00:35.627Z,12.90
2023-01-11T07:03:07.100Z,13.60
2023-01-11T07:05:37.643Z,9.27
2023-01-11T07:08:08.311Z,11.47
2023-01-11T07:10:37.559Z,12.80
2023-01-11T07:13:06.812Z,14.83
2023-01-11T07:15:36.342Z,10.87
2023-01-11T07:18:05.318Z,12.13
2023-01-11T07:20:34.647Z,12.07
2023-01-11T07:23:04.909Z,13.80
2023-01-11T07:25:37.889Z,16.97
2023-01-11T07:28:07.991Z,21.07
2023-01-11T07:30:55.499Z,12.50
2023-01-11T07:33:25.236Z,14.40
2023-01-11T07:35:53.767Z,14.83
2023-01-11T07:38:22.749Z,21.67
2023-01-11T07:40:51.432Z,22.27
2023-01-11T07:43:23.930Z,24.77
2023-01-11T07:45:53.590Z,28.90
2023-01-11T07:48:27.046Z,27.57
2023-01-11T07:50:57.023Z,26.37
2023-01-11T07:53:28.845Z,33.33
2023-01-11T07:55:57.915Z,29.23
2023-01-11T07:58:28.097Z,30.93
2023-01-11T08:01:00.617Z,27.60
2023-01-11T08:03:32.056Z,22.33
2023-01-11T08:06:03.403Z,21.40
2023-01-11T08:08:35.236Z,29.40
2023-01-11T08:11:25.417Z,27.80
2023-01-11T08:14:13.783Z,18.03
2023-01-11T08:16:42.970Z,15.57
2023-01-11T08:19:11.971Z,13.97
2023-01-11T08:21:41.132Z,32.30
2023-01-11T08:24:09.571Z,22.17
2023-01-11T08:26:38.815Z,19.07
2023-01-11T08:29:07.509Z,17.70
2023-01-11T08:31:36.219Z,13.97
2023-01-11T08:34:04.736Z,26.83
2023-01-11T08:36:33.207Z,28.27
2023-01-11T08:39:02.639Z,21.50
2023-01-11T08:41:33.257Z,23.80
2023-01-11T08:44:02.005Z,15.53
2023-01-11T08:46:34.639Z,18.90
2023-01-11T08:49:03.946Z,32.33
2023-01-11T08:51:34.006Z,19.10
2023-01-11T08:54:02.551Z,110.93
2023-01-11T08:56:30.941Z,71.60
2023-01-11T08:58:59.397Z,109.43
2023-01-11T09:01:28.242Z,77.80
2023-01-11T09:03:56.718Z,51.23
2023-01-11T09:06:25.335Z,38.73
2023-01-11T09:08:54.100Z,35.63
2023-01-11T09:11:41.298Z,29.53
2023-01-11T09:14:10.025Z,26.37
2023-01-11T09:16:38.501Z,24.17
2023-01-11T09:19:07.297Z,24.77
2023-01-11T09:21:36.810Z,19.73
2023-01-11T09:24:05.934Z,22.03
2023-01-11T09:26:34.857Z,21.07
2023-01-11T09:29:03.598Z,20.43
2023-01-11T09:31:32.437Z,16.57
2023-01-11T09:34:00.953Z,13.90
2023-01-11T09:36:31.548Z,12.83
2023-01-11T09:39:02.617Z,11.37
2023-01-11T09:42:06.535Z,14.50
2023-01-11T09:44:36.473Z,7.80
2023-01-11T09:47:17.827Z,15.13
2023-01-11T09:49:53.671Z,19.00
2023-01-11T09:52:33.538Z,15.93
2023-01-11T09:55:02.626Z,15.07
2023-01-11T09:57:31.741Z,11.60
2023-01-11T10:00:18.142Z,11.27
2023-01-11T10:02:51.865Z,12.87
2023-01-11T10:05:39.105Z,10.53
2023-01-11T10:18:22.884Z,13.23
2023-01-11T10:18:59.355Z,17.97
2023-01-11T10:21:50.495Z,12.43
2023-01-11T10:24:25.629Z,9.33
2023-01-11T10:26:58.209Z,11.73
2023-01-11T10:29:48.891Z,10.97
2023-01-11T10:33:15.591Z,9.40
2023-01-11T10:35:58.921Z,11.20
2023-01-11T10:39:08.642Z,10.00
2023-01-11T10:41:51.096Z,9.47
2023-01-11T10:44:25.782Z,10.53
2023-01-11T10:46:54.582Z,11.40
2023-01-11T10:49:34.462Z,8.33
2023-01-11T10:52:29.624Z,6.90
2023-01-11T10:54:59.175Z,6.77
2023-01-11T10:57:36.247Z,6.23
2023-01-11T11:00:21.845Z,5.17
2023-01-11T11:03:02.183Z,19.87
2023-01-11T11:06:00.857Z,11.27
2023-01-11T11:08:50.630Z,6.43
2023-01-11T11:11:25.972Z,5.73
2023-01-11T11:14:13.589Z,9.63
2023-01-11T11:17:13.375Z,13.77
2023-01-11T11:19:42.050Z,8.90
2023-01-11T11:22:12.167Z,7.30
2023-01-11T11:24:56.076Z,6.37
2023-01-11T11:27:34.894Z,6.00
2023-01-11T11:30:03.986Z,5.43
2023-01-11T11:32:37.222Z,10.90
2023-01-11T11:35:08.057Z,7.87
2023-01-11T11:37:40.514Z,5.23
2023-01-11T11:40:32.602Z,26.20
2023-01-11T11:43:37.170Z,6.97
2023-01-11T11:46:18.950Z,19.27
2023-01-11T11:49:19.354Z,12.27
2023-01-11T11:51:48.660Z,6.47
2023-01-11T11:54:26.580Z,8.77
2023-01-11T11:56:56.496Z,12.80
2023-01-11T11:59:26.355Z,3.23
2023-01-11T12:02:01.158Z,3.83
2023-01-11T12:04:48.370Z,9.03
2023-01-11T12:07:20.109Z,15.23
2023-01-11T12:09:58.287Z,18.33
2023-01-11T12:12:29.359Z,17.00
2023-01-11T12:15:21.478Z,4.17
2023-01-11T12:17:51.335Z,56.93
2023-01-11T12:20:23.094Z,41.47
2023-01-11T12:23:13.565Z,65.53
2023-01-11T12:25:48.577Z,55.67
2023-01-11T12:28:31.267Z,24.43
2023-01-11T12:31:08.819Z,22.20
2023-01-11T12:33:54.025Z,13.23
2023-01-11T12:36:41.023Z,11.80
2023-01-11T12:39:19.217Z,37.77
2023-01-11T12:42:02.823Z,12.47
2023-01-11T13:10:08.825Z,6.90
2023-01-11T13:12:43.377Z,8.57
2023-01-11T13:15:44.272Z,12.20
2023-01-11T13:18:22.292Z,13.87
2023-01-11T13:21:02.896Z,16.53
2023-01-11T13:23:50.816Z,5.23
2023-01-11T13:26:31.783Z,6.23
2023-01-11T13:29:06.421Z,2.90
2023-01-11T13:31:36.256Z,3.13
2023-01-11T13:34:09.021Z,5.57
2023-01-11T13:36:41.898Z,4.90
2023-01-11T13:39:28.785Z,7.03
2023-01-11T13:42:37.651Z,5.00
2023-01-11T13:45:28.071Z,6.13
2023-01-11T13:48:03.005Z,3.23
2023-01-11T13:50:37.939Z,6.93
2023-01-11T13:53:10.589Z,4.13
2023-01-11T13:55:55.714Z,6.80
2023-01-11T13:58:37.039Z,3.53
2023-01-11T14:01:18.509Z,2.23
2023-01-11T14:04:05.051Z,2.67
2023-01-11T14:06:45.724Z,5.70
2023-01-11T14:09:39.004Z,3.63
2023-01-11T14:12:21.024Z,3.33
2023-01-11T14:15:08.903Z,5.43
2023-01-11T14:17:56.740Z,5.03
2023-01-11T14:20:34.524Z,2.47
2023-01-11T14:23:16.142Z,4.50
2023-01-11T14:26:21.793Z,4.07
2023-01-11T14:28:59.448Z,5.83
2023-01-11T14:31:56.252Z,8.37
2023-01-11T14:34:30.711Z,9.23
2023-01-11T14:37:17.398Z,8.63
2023-01-11T14:40:22.324Z,3.83
2023-01-11T14:43:29.505Z,7.37
2023-01-11T14:46:16.457Z,6.13
2023-01-11T14:48:59.745Z,3.90
2023-01-11T14:51:34.597Z,5.87
2023-01-11T14:54:10.644Z,5.47
2023-01-11T14:56:45.427Z,6.17
2023-01-11T14:59:32.179Z,3.67
2023-01-11T15:02:03.830Z,4.10
2023-01-11T15:04:36.393Z,5.80
2023-01-11T15:07:30.170Z,7.33
2023-01-11T15:09:59.290Z,4.93
2023-01-11T15:12:42.010Z,10.13
2023-01-11T15:15:14.574Z,4.67
2023-01-11T15:18:02.521Z,4.57
2023-01-11T15:20:34.331Z,3.33
2023-01-11T15:23:05.151Z,2.73
2023-01-11T15:25:34.534Z,5.20
2023-01-11T15:28:34.695Z,2.43
2023-01-11T15:31:04.773Z,3.83
2023-01-11T15:33:49.140Z,4.67
2023-01-11T15:36:18.234Z,3.90
2023-01-11T15:38:53.388Z,3.20
2023-01-11T15:42:12.561Z,3.00
2023-01-11T15:44:55.625Z,5.27
2023-01-11T15:47:45.442Z,2.40
2023-01-11T15:50:17.923Z,5.60
2023-01-11T15:52:56.195Z,7.70
2023-01-11T15:55:56.805Z,10.87
2023-01-11T15:58:43.692Z,17.10
2023-01-11T16:01:32.854Z,24.77
2023-01-11T16:04:06.832Z,24.53
2023-01-11T16:06:43.028Z,4.50
2023-01-11T16:10:08.499Z,3.30
2023-01-11T16:12:39.946Z,1.60
2023-01-11T16:15:39.097Z,10.90
2023-01-11T16:18:25.077Z,9.60
2023-01-11T16:21:02.700Z,6.43
2023-01-11T16:23:35.194Z,5.43
2023-01-11T16:26:06.101Z,5.70
2023-01-11T16:28:35.627Z,4.13
2023-01-11T16:31:06.218Z,7.03
2023-01-11T16:33:35.619Z,3.70
2023-01-11T16:36:13.463Z,5.23
2023-01-11T16:39:05.252Z,5.87
2023-01-11T16:42:01.726Z,3.60
2023-01-11T16:44:34.125Z,3.73
2023-01-11T16:47:17.288Z,3.43
2023-01-11T16:49:52.644Z,9.47
2023-01-11T16:52:44.152Z,5.50
2023-01-11T16:55:31.161Z,6.73
2023-01-11T16:58:03.626Z,6.70
2023-01-11T17:00:36.657Z,13.57
2023-01-11T17:03:18.638Z,5.97
2023-01-11T17:06:16.266Z,10.10
2023-01-11T17:08:51.193Z,8.47
2023-01-11T17:11:36.546Z,10.40
2023-01-11T17:14:21.962Z,3.37
2023-01-11T17:17:11.419Z,4.77
2023-01-11T17:19:50.040Z,3.40
2023-01-11T17:22:26.291Z,4.70
2023-01-11T17:24:57.011Z,4.67
2023-01-11T17:27:47.096Z,4.83
2023-01-11T17:30:24.126Z,3.33
2023-01-11T17:32:55.309Z,5.97
2023-01-11T17:35:27.586Z,2.43
2023-01-11T17:37:58.613Z,3.37
2023-01-11T17:40:33.632Z,6.30
2023-01-11T17:43:23.375Z,3.10
2023-01-11T17:46:01.504Z,2.40
2023-01-11T17:48:31.898Z,5.13
2023-01-11T17:51:03.770Z,1.87
2023-01-11T17:53:37.604Z,1.97
2023-01-11T17:56:13.133Z,1.77
2023-01-11T17:58:43.062Z,2.73
2023-01-11T18:01:18.982Z,3.93
2023-01-11T18:03:57.716Z,1.90
2023-01-11T18:06:41.542Z,3.40
2023-01-11T18:09:31.826Z,4.07
2023-01-11T18:12:32.150Z,3.70
2023-01-11T18:15:05.649Z,4.13
2023-01-11T18:17:37.842Z,3.20
2023-01-11T18:20:17.567Z,3.67
2023-01-11T18:23:21.292Z,2.27
2023-01-11T18:25:51.203Z,2.50
2023-01-11T18:28:38.992Z,3.37
2023-01-11T18:31:07.704Z,2.60
2023-01-11T18:33:38.189Z,1.73
2023-01-11T18:36:08.957Z,1.80
2023-01-11T18:38:39.206Z,1.90
2023-01-11T18:41:28.908Z,5.27
2023-01-11T18:43:59.430Z,2.20
2023-01-11T18:46:29.158Z,0.97
2023-01-11T18:48:59.617Z,1.73
2023-01-11T18:51:37.993Z,0.83
2023-01-11T18:54:15.344Z,0.97
2023-01-11T18:56:46.673Z,1.50
2023-01-11T18:59:16.271Z,3.20
2023-01-11T19:01:58.865Z,1.70
2023-01-11T19:04:33.665Z,1.53
2023-01-11T19:07:02.235Z,2.40
2023-01-11T19:09:31.088Z,2.47
2023-01-11T19:12:00.564Z,1.67
2023-01-11T19:14:30.468Z,1.17
2023-01-11T19:16:59.623Z,1.40
2023-01-11T19:19:30.410Z,0.97
2023-01-11T19:22:04.404Z,1.70
2023-01-11T19:24:36.139Z,1.10
2023-01-11T19:27:05.260Z,1.40
2023-01-11T19:29:35.807Z,1.47
2023-01-11T19:32:05.882Z,1.17
2023-01-11T19:34:35.080Z,1.73
2023-01-11T19:37:05.583Z,1.43
2023-01-11T19:39:38.672Z,2.57
2023-01-11T19:42:10.270Z,2.97
2023-01-11T19:44:42.518Z,1.87
2023-01-11T19:47:16.448Z,2.37
2023-01-11T19:49:45.220Z,2.30
2023-01-11T19:52:19.378Z,1.60
2023-01-11T19:54:48.822Z,1.47
2023-01-11T19:57:20.763Z,1.67
2023-01-11T19:59:49.962Z,1.47
2023-01-11T20:02:22.415Z,2.10
2023-01-11T20:04:52.777Z,1.50
2023-01-11T20:07:21.269Z,1.53
2023-01-11T20:09:50.287Z,1.87
2023-01-11T20:12:20.133Z,4.23
2023-01-11T20:14:49.638Z,5.67
2023-01-11T20:17:21.432Z,3.47
2023-01-11T20:19:55.324Z,3.70
2023-01-11T20:22:27.521Z,2.83
2023-01-11T20:24:57.679Z,1.60
2023-01-11T20:27:28.137Z,7.33
2023-01-11T20:29:57.068Z,3.17
2023-01-11T20:32:40.497Z,3.40
2023-01-11T20:35:11.063Z,7.80
2023-01-11T20:37:40.507Z,8.70
2023-01-11T20:40:13.596Z,13.80
2023-01-11T20:42:44.719Z,13.27
2023-01-11T20:45:13.471Z,14.03
2023-01-11T20:47:42.295Z,9.87
2023-01-11T20:50:11.380Z,11.27
2023-01-11T20:52:41.245Z,12.83
2023-01-11T20:55:10.420Z,7.10
2023-01-11T20:57:39.342Z,9.43
2023-01-11T21:02:41.570Z,13.13
2023-01-11T21:05:11.098Z,11.40
2023-01-11T21:07:40.148Z,13.50
2023-01-11T21:10:09.660Z,11.83
2023-01-11T21:12:41.221Z,7.77
2023-01-11T21:15:11.259Z,11.17
2023-01-11T21:17:41.572Z,11.63
2023-01-11T21:20:11.389Z,8.63
2023-01-11T21:22:40.443Z,11.57
2023-01-11T21:25:09.602Z,10.77
2023-01-11T21:27:39.953Z,6.57
2023-01-11T21:30:09.469Z,6.97
2023-01-11T21:32:38.508Z,7.10
2023-01-11T21:35:08.025Z,6.20
2023-01-11T21:37:36.890Z,7.70
2023-01-11T21:40:06.065Z,8.23
2023-01-11T21:42:35.059Z,7.27
2023-01-11T21:45:05.704Z,4.23
2023-01-11T21:47:34.931Z,5.70
2023-01-11T21:50:04.379Z,6.67
2023-01-11T21:52:32.812Z,7.63
2023-01-11T21:55:01.338Z,8.83
2023-01-11T21:57:29.660Z,6.60
2023-01-11T21:59:58.170Z,16.83
2023-01-11T22:02:26.629Z,6.47
2023-01-11T22:04:57.931Z,6.30
2023-01-11T22:07:29.873Z,6.70
2023-01-11T22:10:05.588Z,7.77
2023-01-11T22:12:34.439Z,5.27
2023-01-11T22:15:03.126Z,8.93
2023-01-11T22:17:32.826Z,7.03
2023-01-11T22:20:01.279Z,9.40
2023-01-11T22:22:30.394Z,7.37
2023-01-11T22:24:58.757Z,5.83
2023-01-11T22:27:27.220Z,5.10
2023-01-11T22:29:55.641Z,6.63
2023-01-11T22:32:24.265Z,6.07
2023-01-11T22:34:53.026Z,5.13
2023-01-11T22:37:21.700Z,4.37
2023-01-11T22:39:50.126Z,6.33
2023-01-11T22:42:18.593Z,5.47
2023-01-11T22:44:47.038Z,5.10
2023-01-11T22:47:15.390Z,6.33
2023-01-11T22:49:43.824Z,7.10
2023-01-11T22:52:12.315Z,9.13
2023-01-11T22:54:40.751Z,7.53
2023-01-11T22:57:09.072Z,7.00
2023-01-11T22:59:37.395Z,7.03
2023-01-11T23:02:05.746Z,7.27
2023-01-11T23:04:34.100Z,4.50
2023-01-11T23:07:02.474Z,6.03
2023-01-11T23:09:31.629Z,4.47
2023-01-11T23:12:18.624Z,4.17
2023-01-11T23:14:46.971Z,8.53
2023-01-11T23:17:15.928Z,4.67
2023-01-11T23:19:45.901Z,4.83
2023-01-11T23:22:15.437Z,4.90
2023-01-11T23:24:43.769Z,4.90
2023-01-11T23:27:12.263Z,2.97
2023-01-11T23:29:40.603Z,3.00
2023-01-11T23:32:08.928Z,3.50
2023-01-11T23:34:37.264Z,3.57
2023-01-11T23:37:05.742Z,21.93
2023-01-11T23:39:34.092Z,5.77
2023-01-11T23:42:20.793Z,2.80
2023-01-11T23:44:49.767Z,3.57
2023-01-11T23:47:21.421Z,3.40
2023-01-11T23:49:51.057Z,4.43
2023-01-11T23:52:20.207Z,4.67
2023-01-11T23:54:48.682Z,4.10
2023-01-11T23:57:17.595Z,2.40
2023-01-11T23:59:46.068Z,3.03
